Terminal Aerodrome Forecast
Issued by NWS

Home | Current Version | Previous Version | Graphics & Text | Print | Product List | Glossary On
Versions: 1 2 3 4 5 6 7 8 9 10 11 12
000
FTUS43 KICT 171700
TAFRSL
TAF
KRSL 171726Z 1718/1818 VRB06KT P6SM SCT250
     FM172300 15008KT P6SM FEW250
     FM181200 18011KT P6SM SCT025=

USA.gov is the U.S. government's official web portal to all federal, state and local government web resources and services.